createdAt,value
2022-09-10T00:01:16.498Z,100570.81
2022-09-10T00:03:47.675Z,100575.44
2022-09-10T00:06:16.015Z,100580.94
2022-09-10T00:08:45.123Z,100585.56
2022-09-10T00:11:12.939Z,100573.25
2022-09-10T00:13:41.156Z,100588.31
2022-09-10T00:16:10.353Z,100587.22
2022-09-10T00:18:38.601Z,100591.03
2022-09-10T00:21:07.244Z,100582.84
2022-09-10T00:23:35.323Z,100583.66
2022-09-10T00:26:10.464Z,100546.94
2022-09-10T00:28:38.589Z,100579.25
2022-09-10T00:31:06.507Z,100580.34
2022-09-10T00:33:34.574Z,100575.69
2022-09-10T00:36:05.564Z,100574.88
2022-09-10T00:38:33.549Z,100582.25
2022-09-10T00:41:08.154Z,100583.06
2022-09-10T00:43:55.553Z,100579.50
2022-09-10T00:46:30.482Z,100576.78
2022-09-10T00:48:59.287Z,100516.31
2022-09-10T00:51:30.114Z,100564.56
2022-09-10T00:53:58.327Z,100563.59
2022-09-10T00:56:28.136Z,100569.66
2022-09-10T00:58:55.964Z,100568.84
2022-09-10T01:01:23.684Z,100566.94
2022-09-10T01:03:52.024Z,100537.66
2022-09-10T01:06:19.800Z,100567.19
2022-09-10T01:08:47.529Z,100561.94
2022-09-10T01:11:50.839Z,100564.19
2022-09-10T01:14:31.510Z,100553.97
2022-09-10T01:17:04.603Z,100557.91
2022-09-10T01:20:00.112Z,100518.63
2022-09-10T01:22:32.504Z,100556.22
2022-09-10T01:25:01.527Z,100559.81
2022-09-10T01:27:41.369Z,100551.19
2022-09-10T01:30:15.705Z,100560.63
2022-09-10T01:33:03.569Z,100567.19
2022-09-10T01:35:36.424Z,100567.19
2022-09-10T01:38:07.014Z,100571.81
2022-09-10T01:40:35.591Z,100576.22
2022-09-10T01:43:06.204Z,100569.06
2022-09-10T01:45:35.174Z,100570.97
2022-09-10T01:48:31.355Z,100417.28
2022-09-10T01:51:04.401Z,100556.97
2022-09-10T01:53:44.498Z,100544.03
2022-09-10T01:56:19.407Z,100560.03
2022-09-10T01:58:48.497Z,100562.78
2022-09-10T02:01:20.178Z,100561.94
2022-09-10T02:03:51.378Z,100559.22
2022-09-10T02:06:20.215Z,100556.47
2022-09-10T02:08:48.790Z,100553.75
2022-09-10T02:11:16.497Z,100560.03
2022-09-10T02:13:45.534Z,100557.31
2022-09-10T02:16:16.384Z,100550.41
2022-09-10T02:18:44.114Z,100555.41
2022-09-10T02:21:11.993Z,100560.88
2022-09-10T02:23:42.544Z,100554.22
2022-09-10T02:26:10.402Z,100555.63
2022-09-10T02:28:38.345Z,100554.56
2022-09-10T02:31:06.339Z,100556.47
2022-09-10T02:33:35.956Z,100562.78
2022-09-10T02:36:04.204Z,100556.47
2022-09-10T02:38:32.020Z,100551.00
2022-09-10T02:40:59.801Z,100455.69
2022-09-10T02:43:27.897Z,100554.56
2022-09-10T02:45:57.018Z,100548.50
2022-09-10T02:48:25.961Z,100552.88
2022-09-10T02:50:55.050Z,100551.00
2022-09-10T02:53:23.037Z,100551.00
2022-09-10T02:55:50.762Z,100553.75
2022-09-10T02:58:18.665Z,100548.28
2022-09-10T03:00:47.206Z,100552.03
2022-09-10T03:03:17.267Z,100552.03
2022-09-10T03:05:44.974Z,100561.09
2022-09-10T03:08:14.030Z,100553.97
2022-09-10T03:10:41.777Z,100558.34
2022-09-10T03:13:09.759Z,100554.78
2022-09-10T03:15:38.229Z,100548.50
2022-09-10T03:18:06.763Z,100545.44
2022-09-10T03:20:34.467Z,100555.63
2022-09-10T03:23:03.432Z,100554.78
2022-09-10T03:25:32.516Z,100553.75
2022-09-10T03:28:00.824Z,100552.88
2022-09-10T03:30:29.129Z,100554.56
2022-09-10T03:32:57.823Z,100546.56
2022-09-10T03:35:25.625Z,100551.00
2022-09-10T03:37:53.326Z,100554.56
2022-09-10T03:40:21.107Z,100557.31
2022-09-10T03:42:50.178Z,100549.09
2022-09-10T03:45:18.291Z,100547.19
2022-09-10T03:47:46.082Z,100549.09
2022-09-10T03:50:13.799Z,100551.84
2022-09-10T03:52:41.503Z,100549.09
2022-09-10T03:55:10.583Z,100549.09
2022-09-10T03:57:38.965Z,100558.13
2022-09-10T04:00:12.954Z,100557.31
2022-09-10T04:02:41.730Z,100554.56
2022-09-10T04:05:09.959Z,100560.03
2022-09-10T04:07:37.873Z,100557.31
2022-09-10T04:10:06.647Z,100557.31
2022-09-10T04:12:34.359Z,100558.13
2022-09-10T04:15:04.603Z,100556.13
2022-09-10T04:17:33.961Z,100560.03
2022-09-10T04:20:01.722Z,100561.94
2022-09-10T04:22:29.462Z,100560.25
2022-09-10T04:24:57.434Z,100565.50
2022-09-10T04:27:26.662Z,100562.78
2022-09-10T04:29:54.606Z,100564.69
2022-09-10T04:32:22.312Z,100571.81
2022-09-10T04:34:51.687Z,100574.56
2022-09-10T04:37:19.964Z,100564.91
2022-09-10T04:39:47.699Z,100561.94
2022-09-10T04:42:20.360Z,100571.81
2022-09-10T04:44:49.104Z,100572.66
2022-09-10T04:47:16.864Z,100561.84
2022-09-10T04:49:44.601Z,100569.06
2022-09-10T04:52:13.815Z,100566.34
2022-09-10T04:54:41.749Z,100569.06
2022-09-10T04:57:09.573Z,100563.59
2022-09-10T04:59:38.292Z,100566.56
2022-09-10T05:02:06.647Z,100569.91
2022-09-10T05:04:35.154Z,100547.25
2022-09-10T05:07:02.946Z,100550.28
2022-09-10T05:09:33.525Z,100569.06
2022-09-10T05:12:02.763Z,100571.81
2022-09-10T05:14:30.770Z,100575.38
2022-09-10T05:16:58.487Z,100579.19
2022-09-10T05:19:26.508Z,100586.31
2022-09-10T05:21:54.245Z,100576.44
2022-09-10T05:24:22.256Z,100578.34
2022-09-10T05:26:51.352Z,100578.34
2022-09-10T05:29:19.165Z,100581.94
2022-09-10T05:31:46.955Z,100581.09
2022-09-10T05:34:15.001Z,100581.09
2022-09-10T05:36:42.770Z,100579.19
2022-09-10T05:39:10.521Z,100582.75
2022-09-10T05:41:38.433Z,100586.31
2022-09-10T05:44:08.986Z,100588.22
2022-09-10T05:46:36.682Z,100586.31
2022-09-10T05:49:04.401Z,100586.31
2022-09-10T05:51:32.103Z,100584.41
2022-09-10T05:54:00.228Z,100594.53
2022-09-10T05:56:28.127Z,100593.69
2022-09-10T05:58:55.816Z,100594.53
2022-09-10T06:01:24.936Z,100590.25
2022-09-10T06:03:52.988Z,100593.69
2022-09-10T06:06:21.242Z,100599.16
2022-09-10T06:08:52.023Z,100600.00
2022-09-10T06:11:19.752Z,100601.06
2022-09-10T06:13:47.767Z,100593.59
2022-09-10T06:16:15.540Z,100594.94
2022-09-10T06:18:44.884Z,100616.41
2022-09-10T06:21:13.610Z,100606.19
2022-09-10T06:23:41.619Z,100617.25
2022-09-10T06:26:13.646Z,100621.88
2022-09-10T06:28:41.539Z,100617.47
2022-09-10T06:31:11.880Z,100622.94
2022-09-10T06:33:40.969Z,100630.09
2022-09-10T06:36:10.161Z,100621.25
2022-09-10T06:38:37.955Z,100626.53
2022-09-10T06:41:07.066Z,100627.34
2022-09-10T06:43:36.580Z,100630.91
2022-09-10T06:46:05.524Z,100629.84
2022-09-10T06:48:38.561Z,100637.78
2022-09-10T06:51:08.128Z,100635.88
2022-09-10T06:53:37.882Z,100640.50
2022-09-10T06:56:08.291Z,100640.50
2022-09-10T06:58:36.163Z,100628.41
2022-09-10T07:01:15.138Z,100638.59
2022-09-10T07:03:43.815Z,100639.44
2022-09-10T07:06:13.363Z,100634.94
2022-09-10T07:08:42.468Z,100638.59
2022-09-10T07:11:13.678Z,100643.25
2022-09-10T07:13:41.976Z,100654.19
2022-09-10T07:16:09.786Z,100649.81
2022-09-10T07:18:37.536Z,100652.81
2022-09-10T07:21:08.987Z,100652.56
2022-09-10T07:23:39.085Z,100658.03
2022-09-10T07:26:09.840Z,100659.09
2022-09-10T07:28:37.957Z,100626.50
2022-09-10T07:31:13.595Z,100646.38
2022-09-10T07:33:41.671Z,100658.84
2022-09-10T07:36:10.001Z,100663.75
2022-09-10T07:38:37.948Z,100655.53
2022-09-10T07:41:06.609Z,100664.81
2022-09-10T07:43:38.981Z,100665.41
2022-09-10T07:46:07.076Z,100661.84
2022-09-10T07:48:35.040Z,100659.94
2022-09-10T07:51:03.543Z,100663.50
2022-09-10T07:53:31.591Z,100658.28
2022-09-10T07:56:01.101Z,100669.22
2022-09-10T07:58:29.674Z,100664.56
2022-09-10T08:00:59.709Z,100664.19
2022-09-10T08:03:27.819Z,100673.34
2022-09-10T08:05:55.693Z,100664.31
2022-09-10T08:08:24.254Z,100672.50
2022-09-10T08:10:52.176Z,100664.31
2022-09-10T08:13:20.655Z,100671.44
2022-09-10T08:15:48.493Z,100673.34
2022-09-10T08:18:17.621Z,100670.59
2022-09-10T08:20:45.372Z,100671.72
2022-09-10T08:23:13.374Z,100673.59
2022-09-10T08:25:41.105Z,100675.50
2022-09-10T08:28:08.854Z,100677.66
2022-09-10T08:30:36.603Z,100663.88
2022-09-10T08:33:05.145Z,100680.16
2022-09-10T08:35:34.453Z,100676.59
2022-09-10T08:38:02.181Z,100677.41
2022-09-10T08:40:30.194Z,100673.03
2022-09-10T08:42:58.540Z,100680.38
2022-09-10T08:45:29.274Z,100674.69
2022-09-10T08:47:58.693Z,100673.03
2022-09-10T08:50:30.835Z,100659.75
2022-09-10T08:53:02.138Z,100670.28
2022-09-10T08:55:31.556Z,100670.28
2022-09-10T08:58:01.316Z,100669.44
2022-09-10T09:00:32.189Z,100645.63
2022-09-10T09:03:02.861Z,100671.34
2022-09-10T09:05:31.747Z,100671.34
2022-09-10T09:08:00.978Z,100673.03
2022-09-10T09:10:31.556Z,100661.44
2022-09-10T09:13:28.064Z,100660.66
2022-09-10T09:16:00.532Z,100658.41
2022-09-10T09:18:31.237Z,100666.72
2022-09-10T09:21:00.890Z,100673.84
2022-09-10T09:23:34.017Z,100667.53
2022-09-10T09:26:04.683Z,100666.72
2022-09-10T09:28:35.057Z,100586.19
2022-09-10T09:31:09.310Z,100677.41
2022-09-10T09:33:37.749Z,100665.88
2022-09-10T09:36:05.919Z,100682.28
2022-09-10T09:38:38.253Z,100681.22
2022-09-10T09:41:08.353Z,100673.03
2022-09-10T09:43:43.222Z,100671.34
2022-09-10T09:46:15.059Z,100688.59
2022-09-10T09:48:43.039Z,100676.59
2022-09-10T09:51:12.387Z,100669.44
2022-09-10T09:53:46.320Z,100674.91
2022-09-10T09:56:22.383Z,100665.28
2022-09-10T09:58:50.736Z,100671.94
2022-09-10T10:01:19.986Z,100674.69
2022-09-10T10:03:51.690Z,100675.75
2022-09-10T10:06:21.133Z,100651.25
2022-09-10T10:08:57.149Z,100657.09
2022-09-10T10:11:39.178Z,100661.00
2022-09-10T10:14:13.160Z,100656.59
2022-09-10T10:16:40.892Z,100659.34
2022-09-10T10:19:32.716Z,100659.09
2022-09-10T10:22:20.223Z,100655.28
2022-09-10T10:24:50.581Z,100637.28
2022-09-10T10:27:20.137Z,100638.94
2022-09-10T10:29:53.881Z,100651.72
2022-09-10T10:32:21.576Z,100657.19
2022-09-10T10:34:55.382Z,100650.31
2022-09-10T10:37:28.712Z,100655.53
2022-09-10T10:40:06.072Z,100649.00
2022-09-10T10:42:36.345Z,100640.91
2022-09-10T10:45:13.584Z,100569.16
2022-09-10T10:47:46.453Z,100651.72
2022-09-10T10:50:22.757Z,100654.47
2022-09-10T10:53:00.230Z,100642.69
2022-09-10T10:55:31.470Z,100650.91
2022-09-10T10:58:11.265Z,100646.25
2022-09-10T11:00:42.019Z,100651.72
2022-09-10T11:03:14.446Z,100647.56
2022-09-10T11:05:42.780Z,100649.00
2022-09-10T11:08:11.675Z,100655.28
2022-09-10T11:10:42.359Z,100641.63
2022-09-10T11:13:13.616Z,100653.63
2022-09-10T11:15:44.673Z,100650.91
2022-09-10T11:18:15.568Z,100641.63
2022-09-10T11:20:44.996Z,100621.28
2022-09-10T11:23:18.393Z,100640.78
2022-09-10T11:25:53.133Z,100641.63
2022-09-10T11:28:23.048Z,100652.28
2022-09-10T11:30:54.666Z,100652.28
2022-09-10T11:33:24.445Z,100650.38
2022-09-10T11:35:55.618Z,100655.03
2022-09-10T11:38:25.290Z,100659.41
2022-09-10T11:41:00.076Z,100643.25
2022-09-10T11:43:42.359Z,100657.50
2022-09-10T11:46:12.068Z,100653.13
2022-09-10T11:48:41.978Z,100644.84
2022-09-10T11:51:13.271Z,100655.84
2022-09-10T11:53:41.143Z,100651.22
2022-09-10T11:56:39.520Z,100656.69
2022-09-10T11:59:14.387Z,100644.97
2022-09-10T12:01:57.361Z,100653.03
2022-09-10T12:04:43.663Z,100637.59
2022-09-10T12:07:25.744Z,100661.31
2022-09-10T12:09:59.236Z,100667.88
2022-09-10T12:12:31.505Z,100666.78
2022-09-10T12:14:59.847Z,100670.38
2022-09-10T12:17:29.248Z,100674.16
2022-09-10T12:19:57.877Z,100659.34
2022-09-10T12:22:26.905Z,100664.06
2022-09-10T12:24:56.466Z,100659.41
2022-09-10T12:27:29.611Z,100662.16
2022-09-10T12:29:58.694Z,100666.78
2022-09-10T12:32:29.902Z,100672.28
2022-09-10T12:35:46.442Z,100670.38
2022-09-10T12:38:49.116Z,100674.16
2022-09-10T12:41:54.403Z,100667.03
2022-09-10T12:44:56.466Z,100659.94
2022-09-10T12:47:54.985Z,100648.78
2022-09-10T12:50:46.463Z,100663.50
2022-09-10T12:53:53.723Z,100666.25
2022-09-10T12:56:58.236Z,100648.88
2022-09-10T12:59:48.648Z,100658.59
2022-09-10T13:02:21.289Z,100632.19
2022-09-10T13:04:57.161Z,100648.47
2022-09-10T13:07:25.850Z,100638.38
2022-09-10T13:09:58.189Z,100642.78
2022-09-10T13:12:25.975Z,100634.31
2022-09-10T13:14:54.660Z,100640.59
2022-09-10T13:17:42.206Z,100636.78
2022-09-10T13:20:30.097Z,100639.28
2022-09-10T13:22:59.963Z,100650.22
2022-09-10T13:25:36.994Z,100653.78
2022-09-10T13:28:31.397Z,100657.09
2022-09-10T13:31:01.693Z,100654.34
2022-09-10T13:33:30.339Z,100661.25
2022-09-10T13:36:10.604Z,100662.06
2022-09-10T13:39:08.890Z,100657.44
2022-09-10T13:42:01.520Z,100661.00
2022-09-10T13:44:37.549Z,100649.16
2022-09-10T13:47:10.178Z,100658.00
2022-09-10T13:49:41.153Z,100657.75
2022-09-10T13:52:12.622Z,100660.50
2022-09-10T13:54:41.522Z,100662.97
2022-09-10T13:57:13.183Z,100668.44
2022-09-10T13:59:41.514Z,100659.19
2022-09-10T14:02:09.274Z,100658.34
2022-09-10T14:04:40.880Z,100627.44
2022-09-10T14:07:14.591Z,100662.47
2022-09-10T14:09:43.011Z,100647.56
2022-09-10T14:12:10.759Z,100658.66
2022-09-10T14:14:40.016Z,100654.84
2022-09-10T14:17:08.979Z,100650.22
2022-09-10T14:19:38.907Z,100613.22
2022-09-10T14:22:09.951Z,100652.44
2022-09-10T14:24:48.138Z,100651.34
2022-09-10T14:27:17.664Z,100644.22
2022-09-10T14:29:46.630Z,100654.09
2022-09-10T14:32:27.707Z,100546.19
2022-09-10T14:34:55.585Z,100644.53
2022-09-10T14:37:32.163Z,100649.44
2022-09-10T14:40:05.920Z,100659.63
2022-09-10T14:42:35.431Z,100662.38
2022-09-10T14:45:03.727Z,100666.78
2022-09-10T14:47:37.093Z,100670.34
2022-09-10T14:50:27.791Z,100670.34
2022-09-10T14:52:55.702Z,100671.72
2022-09-10T14:55:25.296Z,100676.38
2022-09-10T14:57:54.145Z,100675.31
2022-09-10T15:00:22.012Z,100672.31
2022-09-10T15:02:50.611Z,100673.16
2022-09-10T15:05:24.700Z,100684.66
2022-09-10T15:07:54.892Z,100682.75
2022-09-10T15:10:26.642Z,100680.28
2022-09-10T15:12:56.434Z,100684.94
2022-09-10T15:15:24.915Z,100682.19
2022-09-10T15:17:56.937Z,100678.63
2022-09-10T15:20:27.803Z,100680.28
2022-09-10T15:22:55.853Z,100672.31
2022-09-10T15:25:33.025Z,100676.72
2022-09-10T15:28:04.106Z,100680.28
2022-09-10T15:30:31.826Z,100681.09
2022-09-10T15:33:02.750Z,100673.72
2022-09-10T15:35:31.055Z,100677.28
2022-09-10T15:38:01.641Z,100669.91
2022-09-10T15:40:31.255Z,100675.13
2022-09-10T15:42:59.236Z,100677.88
2022-09-10T15:45:27.032Z,100689.66
2022-09-10T15:47:55.113Z,100690.47
2022-09-10T15:50:22.924Z,100692.13
2022-09-10T15:52:50.687Z,100698.41
2022-09-10T15:55:19.254Z,100700.31
2022-09-10T15:57:49.717Z,100692.13
2022-09-10T16:00:17.879Z,100698.69
2022-09-10T16:02:47.925Z,100697.88
2022-09-10T16:05:16.273Z,100693.22
2022-09-10T16:07:44.486Z,100697.28
2022-09-10T16:10:16.741Z,100646.72
2022-09-10T16:12:44.437Z,100601.97
2022-09-10T16:15:14.062Z,100705.72
2022-09-10T16:17:42.244Z,100697.44
2022-09-10T16:20:11.147Z,100702.44
2022-09-10T16:22:38.853Z,100700.53
2022-09-10T16:25:12.147Z,100702.44
2022-09-10T16:27:43.142Z,100699.69
2022-09-10T16:30:14.344Z,100718.03
2022-09-10T16:32:42.099Z,100717.19
2022-09-10T16:35:10.443Z,100720.75
2022-09-10T16:37:38.192Z,100717.19
2022-09-10T16:40:07.202Z,100727.06
2022-09-10T16:42:34.974Z,100732.53
2022-09-10T16:45:04.862Z,100731.72
2022-09-10T16:47:34.142Z,100733.63
2022-09-10T16:52:55.299Z,100740.75
2022-09-10T16:55:25.543Z,100737.19
2022-09-10T16:57:57.527Z,100737.19
2022-09-10T17:00:25.310Z,100737.19
2022-09-10T17:02:54.706Z,100736.59
2022-09-10T17:05:27.444Z,100721.69
2022-09-10T17:07:59.573Z,100721.09
2022-09-10T17:10:32.533Z,100746.72
2022-09-10T17:13:00.261Z,100741.50
2022-09-10T17:15:29.685Z,100742.50
2022-09-10T17:17:58.753Z,100757.09
2022-09-10T17:20:26.572Z,100715.03
2022-09-10T17:22:54.379Z,100758.16
2022-09-10T17:25:22.395Z,100764.72
2022-09-10T17:27:50.162Z,100772.09
2022-09-10T17:30:17.933Z,100755.59
2022-09-10T17:32:45.964Z,100764.94
2022-09-10T17:35:15.212Z,100778.06
2022-09-10T17:37:42.996Z,100781.66
2022-09-10T17:40:10.949Z,100786.28
2022-09-10T17:42:38.920Z,100786.53
2022-09-10T17:45:10.114Z,100786.28
2022-09-10T17:47:38.363Z,100789.50
2022-09-10T17:50:06.908Z,100791.16
2022-09-10T17:52:36.077Z,100801.28
2022-09-10T17:55:03.954Z,100803.19
2022-09-10T17:57:34.594Z,100805.13
2022-09-10T18:00:09.066Z,100806.19
2022-09-10T18:05:43.430Z,100821.78
2022-09-10T18:08:15.827Z,100808.97
2022-09-10T18:10:45.398Z,100831.88
2022-09-10T18:13:14.753Z,100833.78
2022-09-10T18:15:46.457Z,100835.69
2022-09-10T18:18:14.235Z,100835.69
2022-09-10T18:20:42.993Z,100843.91
2022-09-10T18:23:14.057Z,100844.97
2022-09-10T18:25:49.534Z,100802.53
2022-09-10T18:28:20.471Z,100851.56
2022-09-10T18:30:48.272Z,100860.56
2022-09-10T18:33:16.337Z,100865.22
2022-09-10T18:35:44.137Z,100865.47
2022-09-10T18:38:12.145Z,100868.22
2022-09-10T18:40:40.520Z,100868.22
2022-09-10T18:43:10.080Z,100869.03
2022-09-10T18:45:37.793Z,100840.94
2022-09-10T18:48:05.585Z,100884.63
2022-09-10T18:50:36.397Z,100892.00
2022-09-10T18:53:06.649Z,100890.94
2022-09-10T18:55:34.385Z,100893.06
2022-09-10T18:58:02.978Z,100900.22
2022-09-10T19:00:32.687Z,100908.41
2022-09-10T19:03:03.936Z,100914.97
2022-09-10T19:05:32.130Z,100903.19
2022-09-10T19:07:59.926Z,100915.19
2022-09-10T19:10:29.798Z,100916.03
2022-09-10T19:12:57.818Z,100916.03
2022-09-10T19:15:27.862Z,100921.50
2022-09-10T19:17:56.928Z,100921.50
2022-09-10T19:20:26.494Z,100924.97
2022-09-10T19:22:54.440Z,100927.81
2022-09-10T19:25:22.875Z,100937.09
2022-09-10T19:27:50.595Z,100937.09
2022-09-10T19:30:20.604Z,100860.88
2022-09-10T19:32:48.300Z,100945.06
2022-09-10T19:35:22.730Z,100918.69
2022-09-10T19:37:53.222Z,100943.56
2022-09-10T19:40:21.010Z,100955.66
2022-09-10T19:42:49.001Z,100954.59
2022-09-10T19:45:16.730Z,100964.72
2022-09-10T19:47:44.453Z,100971.81
2022-09-10T19:50:12.363Z,100987.44
2022-09-10T19:52:41.806Z,100979.47
2022-09-10T19:55:12.908Z,100980.28
2022-09-10T19:57:41.108Z,100982.19
2022-09-10T20:00:24.959Z,100958.56
2022-09-10T20:03:00.520Z,100980.53
2022-09-10T20:05:28.959Z,100960.09
2022-09-10T20:07:58.082Z,100991.47
2022-09-10T20:10:25.845Z,100955.34
2022-09-10T20:12:53.847Z,100986.41
2022-09-10T20:15:21.582Z,100989.81
2022-09-10T20:17:51.174Z,100996.13
2022-09-10T20:20:19.607Z,100996.13
2022-09-10T20:22:47.636Z,100996.84
2022-09-10T20:25:16.904Z,101001.59
2022-09-10T20:27:44.674Z,101011.69
2022-09-10T20:30:12.613Z,101003.47
2022-09-10T20:32:40.970Z,101017.16
2022-09-10T20:35:10.293Z,100977.94
2022-09-10T20:37:38.043Z,101018.22
2022-09-10T20:40:06.680Z,100977.47
2022-09-10T20:42:35.789Z,101012.75
2022-09-10T20:45:03.601Z,101005.38
2022-09-10T20:47:31.523Z,101019.34
2022-09-10T20:49:59.273Z,101017.44
2022-09-10T20:52:27.276Z,101021.22
2022-09-10T20:54:55.628Z,101027.28
2022-09-10T20:57:23.483Z,101021.22
2022-09-10T20:59:52.612Z,101026.44
2022-09-10T21:02:20.765Z,101032.19
2022-09-10T21:04:48.561Z,101040.38
2022-09-10T21:07:17.147Z,101040.63
2022-09-10T21:09:45.180Z,101043.13
2022-09-10T21:12:13.191Z,101042.28
2022-09-10T21:14:40.920Z,101044.19
2022-09-10T21:17:10.041Z,101043.47
2022-09-10T21:19:37.754Z,101048.81
2022-09-10T21:22:05.797Z,101055.38
2022-09-10T21:24:33.550Z,101058.09
2022-09-10T21:27:03.098Z,101056.44
2022-09-10T21:29:32.106Z,101060.00
2022-09-10T21:32:00.472Z,101061.66
2022-09-10T21:34:29.601Z,101060.84
2022-09-10T21:36:57.356Z,101011.38
2022-09-10T21:39:25.127Z,101060.00
2022-09-10T21:41:53.123Z,101065.47
2022-09-10T21:44:22.281Z,101060.00
2022-09-10T21:46:50.154Z,101061.09
2022-09-10T21:49:18.417Z,101059.16
2022-09-10T21:51:47.915Z,101061.09
2022-09-10T21:54:17.077Z,101065.72
2022-09-10T21:56:44.909Z,101066.56
2022-09-10T21:59:13.116Z,101068.47
2022-09-10T22:01:42.102Z,101067.63
2022-09-10T22:04:09.936Z,101059.16
2022-09-10T22:06:37.680Z,101066.19
2022-09-10T22:09:08.002Z,101077.75
2022-09-10T22:11:36.786Z,101080.47
2022-09-10T22:14:05.700Z,101076.06
2022-09-10T22:16:34.719Z,101081.53
2022-09-10T22:19:04.110Z,101084.28
2022-09-10T22:21:32.478Z,101085.13
2022-09-10T22:24:00.226Z,101088.91
2022-09-10T22:26:29.379Z,101084.50
2022-09-10T22:28:59.215Z,101080.94
2022-09-10T22:31:28.348Z,101083.94
2022-09-10T22:33:56.955Z,101080.59
2022-09-10T22:36:26.603Z,101089.97
2022-09-10T22:38:56.159Z,101084.16
2022-09-10T22:41:24.245Z,101099.25
2022-09-10T22:43:53.368Z,101100.94
2022-09-10T22:46:21.242Z,101095.44
2022-09-10T22:48:49.004Z,101099.50
2022-09-10T22:51:17.921Z,101097.63
2022-09-10T22:53:45.957Z,101104.50
2022-09-10T22:56:14.218Z,101106.66
2022-09-10T22:58:42.097Z,101009.47
2022-09-10T23:01:12.694Z,101111.03
2022-09-10T23:03:40.661Z,101112.13
2022-09-10T23:06:09.619Z,101118.41
2022-09-10T23:08:37.455Z,101117.59
2022-09-10T23:11:10.879Z,101116.75
2022-09-10T23:13:38.643Z,101112.34
2022-09-10T23:16:15.241Z,101126.88
2022-09-10T23:18:43.394Z,101124.13
2022-09-10T23:21:11.896Z,101128.78
2022-09-10T23:23:39.644Z,101130.03
2022-09-10T23:26:08.854Z,101128.78
2022-09-10T23:28:36.596Z,101119.34
2022-09-10T23:31:09.383Z,101136.97
2022-09-10T23:33:38.509Z,101134.25
2022-09-10T23:36:07.070Z,101126.47
2022-09-10T23:38:35.430Z,101128.16
2022-09-10T23:41:03.518Z,101136.38
2022-09-10T23:43:31.253Z,101134.66
2022-09-10T23:45:59.177Z,101139.94
2022-09-10T23:48:27.050Z,101137.22
2022-09-10T23:50:56.119Z,101139.94
2022-09-10T23:53:25.291Z,101128.50
2022-09-10T23:55:53.419Z,101142.69
2022-09-10T23:58:21.516Z,101145.41
